Detall de PIREP

Printer-friendly versionPDF version

[2014/07/13 09:27:00]
Flight IATA:CT2315
Pilot Number:012
Company ICAO:CAT
Aircraft Type:MD11/E
PAX:281
Aircraft Registration:PAX
Departing Airport: LIPZ
Destination Airport: LIEA
Alternate Airport:LIEO
Online: VATSIM
Route:CHI UM167 FRZ UL12 ELB UZ254 OKIDO UZ924 KOLUS UM603 MOROB
Flight Level:F290
No Slew and time accel
No pause
Crash detect
Detect pilot in Cockpit between each 30 and 45 minutes
09:27 Zero fuel Weight: 401296 Lbs, Fuel Weight: 49894 Lbs
09:27 VATSIM:LIPZ 130850Z VRB03KT 9999 FEW015 SCT025 21/16 Q1012
09:27 VATSIM:LIEA 130850Z 27011KT 9999 FEW020 24/17 Q1016
09:28 Parking Brakes off
09:32 Take-off
09:32 Take off Weight: 450197 Lbs
09:32 Wind: 357º @ 002 Knots Heading: 041º
09:32 POS N45º 30´ 13´´ E012º 20´ 59´´
09:32 Gear Up: 176 Knots
09:32 Flaps:3 at 176 Knots
09:33 Flaps:2 at 215 Knots
09:33 Flaps:3 at 217 Knots
09:33 Flaps:2 at 218 Knots
09:33 Flaps:1 at 219 Knots
09:34 Flaps:0 at 241 Knots
09:41 TOC
09:41 Fuel Weight: 41852 Lb
09:47 Wind:333º@031 Knots Heading: 225º Ground Speed: 503 Knots Altitude 29005 ft
10:02 Wind:317º@036 Knots Heading: 180º Ground Speed: 522 Knots Altitude 28982 ft
10:09 TOD
10:09 Fuel Weight: 33921 Lb
10:17 Wind:290º@024 Knots Heading: 266º Ground Speed: 362 Knots Altitude 15406 ft
10:23 Flaps:1 at 252 Knots
10:24 Gear Down: 250 Knots
10:24 Flaps:2 at 251 Knots
10:24 Flaps:3 at 248 Knots
10:25 Flaps:4 at 195 Knots
10:25 Flaps:3 at 193 Knots
10:25 Flaps:4 at 192 Knots
10:25 Flaps:5 at 192 Knots
10:25 Flaps:6 at 190 Knots
10:26 Flaps:5 at 211 Knots
10:26 Flaps:6 at 212 Knots
10:28 TouchDown:Rate -228 ft/min Speed: 167 Knots
10:29 VATSIM:LIEA 130950Z 28010KT 250V320 9999 FEW020 25/17 Q1016
10:29 Land
10:29 Wind:285º@010 Knots
10:29 Heading: 200º
10:29 Flight Duration: 00:57
10:29 Landing Weight: 432226 Lbs
10:29 POS N40º 37´ 47´´ E008º 17´ 21´´
10:31 Parking brakes on
10:31 Block to Block Duration: 01:03
10:31 Final Fuel: 30615 Lbls
10:31 Spent Fuel: 19279 Lbls
10:31 Flight Length: 402 NM
10:31 TOD Land Length: 104 NM

Exportar CSV

Powered by Drupal - Modified by Danger4k